createdAt,value
2019-04-07T00:00:48.886Z,100035.43
2019-04-07T00:02:23.549Z,100037.77
2019-04-07T00:03:58.597Z,100038.27
2019-04-07T00:05:33.413Z,100042.53
2019-04-07T00:07:08.340Z,100035.77
2019-04-07T00:08:43.289Z,100034.77
2019-04-07T00:10:18.099Z,100035.64
2019-04-07T00:11:53.504Z,100038.36
2019-04-07T00:13:28.251Z,100043.59
2019-04-07T00:15:02.906Z,100039.98
2019-04-07T00:16:39.097Z,100041.10
2019-04-07T00:18:14.184Z,100042.73
2019-04-07T00:19:48.835Z,100042.59
2019-04-07T00:21:24.084Z,100047.31
2019-04-07T00:22:58.780Z,100045.84
2019-04-07T00:24:33.421Z,100046.64
2019-04-07T00:26:08.186Z,100046.91
2019-04-07T00:27:43.084Z,100052.86
2019-04-07T00:29:18.305Z,100052.39
2019-04-07T00:30:53.013Z,100046.04
2019-04-07T00:32:27.685Z,100047.91
2019-04-07T00:34:02.809Z,100045.31
2019-04-07T00:35:38.072Z,100048.19
2019-04-07T00:37:12.888Z,100041.42
2019-04-07T00:38:48.275Z,100040.43
2019-04-07T00:40:24.026Z,100039.88
2019-04-07T00:41:59.219Z,100039.53
2019-04-07T00:43:34.210Z,100050.30
2019-04-07T00:45:09.742Z,100042.20
2019-04-07T00:46:44.536Z,100044.09
2019-04-07T00:48:19.504Z,100048.02
2019-04-07T00:49:54.217Z,100044.84
2019-04-07T00:51:28.959Z,100043.60
2019-04-07T00:53:03.704Z,100043.78
2019-04-07T00:54:38.399Z,100049.29
2019-04-07T00:56:13.214Z,100049.09
2019-04-07T00:57:48.276Z,100046.08
2019-04-07T00:59:23.275Z,100053.05
2019-04-07T01:00:58.819Z,100046.70
2019-04-07T01:02:33.515Z,100044.19
2019-04-07T01:04:08.742Z,100049.81
2019-04-07T01:05:43.694Z,100047.25
2019-04-07T01:07:18.968Z,100052.84
2019-04-07T01:08:53.852Z,100043.66
2019-04-07T01:10:28.491Z,100050.26
2019-04-07T01:12:04.008Z,100048.98
2019-04-07T01:13:38.780Z,100045.88
2019-04-07T01:15:14.045Z,100055.06
2019-04-07T01:16:48.827Z,100049.42
2019-04-07T01:18:25.820Z,100047.47
2019-04-07T01:19:59.823Z,100055.11
2019-04-07T01:21:34.627Z,100047.82
2019-04-07T01:23:09.382Z,100047.37
2019-04-07T01:24:44.128Z,100052.77
2019-04-07T01:26:18.969Z,100052.46
2019-04-07T01:27:53.621Z,100057.05
2019-04-07T01:29:28.294Z,100060.58
2019-04-07T01:31:03.388Z,100065.53
2019-04-07T01:32:38.057Z,100058.65
2019-04-07T01:34:13.460Z,100064.00
2019-04-07T01:35:50.286Z,100065.86
2019-04-07T01:37:25.269Z,100068.65
2019-04-07T01:39:00.050Z,100076.92
2019-04-07T01:40:35.198Z,100075.59
2019-04-07T01:42:24.671Z,100075.62
2019-04-07T01:44:11.394Z,100071.18
2019-04-07T01:46:05.266Z,100065.58
2019-04-07T01:47:49.599Z,100067.73
2019-04-07T01:49:38.082Z,100073.06
2019-04-07T01:51:30.361Z,100065.62
2019-04-07T01:53:27.981Z,100071.49
2019-04-07T01:55:27.750Z,100066.20
2019-04-07T01:57:26.424Z,100064.68
2019-04-07T01:59:11.065Z,100061.27
2019-04-07T02:01:04.483Z,100055.95
2019-04-07T02:02:49.406Z,100052.94
2019-04-07T02:04:36.718Z,100050.69
2019-04-07T02:06:17.882Z,100052.47
2019-04-07T02:08:14.623Z,100049.80
2019-04-07T02:10:08.704Z,100050.05
2019-04-07T02:12:01.761Z,100055.66
2019-04-07T02:13:54.735Z,100060.73
2019-04-07T02:15:42.304Z,100054.63
2019-04-07T02:17:42.738Z,100056.01
2019-04-07T02:19:35.948Z,100056.27
2019-04-07T02:21:20.707Z,100057.07
2019-04-07T02:23:20.704Z,100053.62
2019-04-07T02:25:11.958Z,100051.52
2019-04-07T02:27:15.279Z,100052.90
2019-04-07T02:28:57.227Z,100052.92
2019-04-07T02:30:45.997Z,100058.28
2019-04-07T02:32:52.469Z,100046.84
2019-04-07T02:34:34.151Z,100060.09
2019-04-07T02:36:34.054Z,100055.12
2019-04-07T02:38:37.006Z,100058.23
2019-04-07T02:40:17.899Z,100057.41
2019-04-07T02:41:58.880Z,100060.31
2019-04-07T02:43:51.620Z,100057.13
2019-04-07T02:45:47.517Z,100055.31
2019-04-07T02:47:47.263Z,100058.20
2019-04-07T02:49:50.003Z,100052.38
2019-04-07T02:51:51.252Z,100059.97
2019-04-07T02:53:45.483Z,100064.51
2019-04-07T02:55:29.997Z,100064.56
2019-04-07T02:57:39.044Z,100068.47
2019-04-07T02:59:21.510Z,100071.13
2019-04-07T03:01:13.955Z,100069.30
2019-04-07T03:03:06.245Z,100072.13
2019-04-07T03:05:06.445Z,100078.91
2019-04-07T03:06:52.879Z,100075.27
2019-04-07T03:08:40.067Z,100071.71
2019-04-07T03:10:40.517Z,100076.17
2019-04-07T03:12:37.593Z,100073.52
2019-04-07T03:14:22.487Z,100082.12
2019-04-07T03:16:22.406Z,100077.34
2019-04-07T03:18:29.289Z,100077.90
2019-04-07T03:20:08.710Z,100075.53
2019-04-07T03:21:55.505Z,100076.31
2019-04-07T03:23:49.759Z,100072.34
2019-04-07T03:25:38.657Z,100076.08
2019-04-07T03:27:36.122Z,100067.84
2019-04-07T03:29:29.285Z,100072.62
2019-04-07T03:31:12.751Z,100067.34
2019-04-07T03:33:07.939Z,100072.61
2019-04-07T03:34:51.513Z,100081.10
2019-04-07T03:37:02.909Z,100073.45
2019-04-07T03:38:29.303Z,100073.17
2019-04-07T03:40:24.322Z,100073.17
2019-04-07T03:42:17.998Z,100079.30
2019-04-07T03:44:05.976Z,100077.75
2019-04-07T03:45:53.859Z,100088.37
2019-04-07T03:47:36.153Z,100087.23
2019-04-07T03:49:20.337Z,100084.91
2019-04-07T03:51:04.428Z,100083.58
2019-04-07T03:52:56.925Z,100083.03
2019-04-07T03:54:43.357Z,100080.88
2019-04-07T03:56:31.593Z,100083.00
2019-04-07T03:58:36.346Z,100081.61
2019-04-07T04:01:22.302Z,100074.23
2019-04-07T04:03:06.566Z,100082.14
2019-04-07T04:04:49.851Z,100078.47
2019-04-07T04:06:53.443Z,100083.80
2019-04-07T04:08:54.905Z,100083.05
2019-04-07T04:10:41.329Z,100081.98
2019-04-07T04:12:29.933Z,100087.38
2019-04-07T04:14:19.430Z,100081.28
2019-04-07T04:16:16.410Z,100082.08
2019-04-07T04:17:51.324Z,100082.08
2019-04-07T04:19:27.134Z,100081.31
2019-04-07T04:21:02.286Z,100088.23
2019-04-07T04:22:37.750Z,100085.84
2019-04-07T04:24:12.706Z,100086.38
2019-04-07T04:25:47.336Z,100082.64
2019-04-07T04:27:21.997Z,100083.41
2019-04-07T04:28:56.718Z,100085.83
2019-04-07T04:30:32.345Z,100081.84
2019-04-07T04:32:07.701Z,100080.72
2019-04-07T04:33:42.471Z,100084.50
2019-04-07T04:35:17.126Z,100096.20
2019-04-07T04:36:52.961Z,100092.75
2019-04-07T04:38:28.361Z,100092.48
2019-04-07T04:40:03.083Z,100092.99
2019-04-07T04:41:38.005Z,100094.30
2019-04-07T04:43:13.750Z,100090.84
2019-04-07T04:44:48.527Z,100100.92
2019-04-07T04:46:23.894Z,100101.70
2019-04-07T04:48:00.343Z,100102.22
2019-04-07T04:49:35.292Z,100104.63
2019-04-07T04:51:11.755Z,100105.20
2019-04-07T04:52:46.908Z,100109.69
2019-04-07T04:54:21.670Z,100111.28
2019-04-07T04:55:56.331Z,100114.21
2019-04-07T04:57:32.043Z,100108.65
2019-04-07T04:59:08.216Z,100119.77
2019-04-07T05:00:43.031Z,100116.05
2019-04-07T05:02:17.686Z,100119.50
2019-04-07T05:03:52.577Z,100117.36
2019-04-07T05:05:28.056Z,100116.84
2019-04-07T05:07:03.407Z,100121.61
2019-04-07T05:08:39.260Z,100122.92
2019-04-07T05:10:13.940Z,100125.31
2019-04-07T05:11:48.632Z,100129.55
2019-04-07T05:13:23.264Z,100131.95
2019-04-07T05:14:58.094Z,100134.08
2019-04-07T05:16:34.443Z,100125.01
2019-04-07T05:18:10.701Z,100133.53
2019-04-07T05:19:46.619Z,100133.25
2019-04-07T05:21:21.243Z,100139.59
2019-04-07T05:22:55.976Z,100138.02
2019-04-07T05:24:31.267Z,100138.23
2019-04-07T05:26:06.058Z,100144.06
2019-04-07T05:27:41.654Z,100141.92
2019-04-07T05:29:17.043Z,100146.41
2019-04-07T05:30:53.355Z,100145.75
2019-04-07T05:32:28.697Z,100145.98
2019-04-07T05:34:03.795Z,100154.66
2019-04-07T05:35:39.553Z,100144.99
2019-04-07T05:37:14.188Z,100145.02
2019-04-07T05:38:48.867Z,100152.97
2019-04-07T05:40:23.553Z,100151.48
2019-04-07T05:41:58.221Z,100149.78
2019-04-07T05:43:32.912Z,100153.95
2019-04-07T05:45:08.261Z,100156.69
2019-04-07T05:46:43.470Z,100155.13
2019-04-07T05:48:20.126Z,100156.63
2019-04-07T05:49:57.371Z,100163.77
2019-04-07T05:51:31.361Z,100166.35
2019-04-07T05:53:12.136Z,100159.58
2019-04-07T05:54:49.546Z,100158.95
2019-04-07T05:56:25.876Z,100158.95
2019-04-07T05:57:58.712Z,100166.51
2019-04-07T05:59:33.506Z,100166.51
2019-04-07T06:01:08.236Z,100166.84
2019-04-07T06:02:44.117Z,100167.66
2019-04-07T06:04:19.318Z,100173.00
2019-04-07T06:05:54.890Z,100173.00
2019-04-07T06:07:31.540Z,100170.97
2019-04-07T06:09:08.017Z,100175.42
2019-04-07T06:10:42.765Z,100307.54
2019-04-07T06:12:17.489Z,100172.91
2019-04-07T06:13:52.880Z,100172.91
2019-04-07T06:15:27.619Z,100184.11
2019-04-07T06:17:02.306Z,100181.55
2019-04-07T06:18:36.968Z,100181.36
2019-04-07T06:20:15.032Z,100181.33
2019-04-07T06:21:48.951Z,100187.20
2019-04-07T06:23:26.009Z,100172.87
2019-04-07T06:25:02.686Z,100181.51
2019-04-07T06:26:41.541Z,100184.27
2019-04-07T06:28:16.334Z,100185.17
2019-04-07T06:29:50.166Z,100173.55
2019-04-07T06:31:26.300Z,100182.94
2019-04-07T06:33:01.683Z,100178.63
2019-04-07T06:34:39.748Z,100180.33
2019-04-07T06:36:13.293Z,100185.94
2019-04-07T06:37:48.016Z,100186.83
2019-04-07T06:39:23.217Z,100188.70
2019-04-07T06:41:00.896Z,100181.13
2019-04-07T06:42:34.345Z,100185.75
2019-04-07T06:44:13.410Z,100184.97
2019-04-07T06:45:54.236Z,100186.27
2019-04-07T06:47:42.339Z,100182.31
2019-04-07T06:49:29.525Z,100190.92
2019-04-07T06:51:11.636Z,100191.50
2019-04-07T06:53:17.872Z,100187.55
2019-04-07T06:55:13.565Z,100190.47
2019-04-07T06:57:10.595Z,100183.94
2019-04-07T06:59:16.667Z,100183.72
2019-04-07T07:01:25.798Z,100187.49
2019-04-07T07:03:33.529Z,100192.09
2019-04-07T07:05:13.733Z,100185.41
2019-04-07T07:06:58.911Z,100186.84
2019-04-07T07:08:58.447Z,100183.44
2019-04-07T07:10:50.561Z,100191.45
2019-04-07T07:12:47.120Z,100190.59
2019-04-07T07:14:40.546Z,100188.18
2019-04-07T07:16:17.347Z,100192.46
2019-04-07T07:18:11.349Z,100179.83
2019-04-07T07:20:05.936Z,100193.82
2019-04-07T07:22:00.311Z,100194.72
2019-04-07T07:23:37.648Z,100189.87
2019-04-07T07:25:13.226Z,100193.42
2019-04-07T07:26:49.501Z,100195.09
2019-04-07T07:28:24.186Z,100197.03
2019-04-07T07:29:58.849Z,100195.78
2019-04-07T07:31:33.563Z,100197.28
2019-04-07T07:33:10.973Z,100199.48
2019-04-07T07:34:44.624Z,100210.91
2019-04-07T07:36:21.511Z,100209.20
2019-04-07T07:37:58.121Z,100210.33
2019-04-07T07:39:32.102Z,100219.82
2019-04-07T07:41:06.804Z,100220.72
2019-04-07T07:42:43.114Z,100219.03
2019-04-07T07:44:17.789Z,100220.03
2019-04-07T07:45:52.492Z,100218.97
2019-04-07T07:47:27.492Z,100227.23
2019-04-07T07:49:02.248Z,100219.75
2019-04-07T07:50:38.717Z,100224.94
2019-04-07T07:52:16.572Z,100225.42
2019-04-07T07:53:49.626Z,100219.17
2019-04-07T07:55:25.196Z,100215.91
2019-04-07T07:57:00.141Z,100218.66
2019-04-07T07:58:35.525Z,100213.98
2019-04-07T08:00:10.398Z,100219.06
2019-04-07T08:01:47.069Z,100222.06
2019-04-07T08:03:22.911Z,100214.72
2019-04-07T08:04:59.180Z,100209.82
2019-04-07T08:06:38.497Z,100214.63
2019-04-07T08:08:11.564Z,100215.19
2019-04-07T08:09:48.019Z,100214.66
2019-04-07T08:11:22.908Z,100214.25
2019-04-07T08:12:57.550Z,100215.88
2019-04-07T08:14:33.190Z,100210.20
2019-04-07T08:16:08.656Z,100212.58
2019-04-07T08:17:43.376Z,100214.97
2019-04-07T08:19:18.987Z,100213.87
2019-04-07T08:20:53.760Z,100214.44
2019-04-07T08:22:33.934Z,100210.73
2019-04-07T08:24:05.203Z,100213.48
2019-04-07T08:25:40.071Z,100221.20
2019-04-07T08:27:14.983Z,100223.56
2019-04-07T08:28:50.291Z,100220.67
2019-04-07T08:30:26.056Z,100211.99
2019-04-07T08:32:00.823Z,100217.72
2019-04-07T08:33:35.579Z,100215.23
2019-04-07T08:35:10.982Z,100216.84
2019-04-07T08:36:47.190Z,100218.74
2019-04-07T08:38:25.398Z,100219.69
2019-04-07T08:39:59.399Z,100220.37
2019-04-07T08:41:34.082Z,100219.97
2019-04-07T08:43:08.782Z,100219.69
2019-04-07T08:44:44.098Z,100216.33
2019-04-07T08:46:18.957Z,100213.19
2019-04-07T08:47:53.768Z,100221.30
2019-04-07T08:49:31.101Z,100210.55
2019-04-07T08:51:05.861Z,100218.58
2019-04-07T08:52:42.675Z,100221.61
2019-04-07T08:54:18.455Z,100221.50
2019-04-07T08:55:54.707Z,100230.83
2019-04-07T08:57:31.145Z,100211.85
2019-04-07T08:59:09.483Z,100217.80
2019-04-07T09:00:48.218Z,100214.02
2019-04-07T09:02:26.896Z,100227.30
2019-04-07T09:04:00.021Z,100216.03
2019-04-07T09:05:35.418Z,100218.88
2019-04-07T09:07:10.349Z,100220.55
2019-04-07T09:08:45.067Z,100222.59
2019-04-07T09:10:27.878Z,100216.83
2019-04-07T09:12:02.568Z,100221.70
2019-04-07T09:13:37.424Z,100220.09
2019-04-07T09:15:15.513Z,100209.76
2019-04-07T09:17:04.562Z,100214.70
2019-04-07T09:19:04.916Z,100214.74
2019-04-07T09:20:57.630Z,100226.08
2019-04-07T09:22:56.657Z,100204.89
2019-04-07T09:24:41.853Z,100210.98
2019-04-07T09:26:24.205Z,100205.19
2019-04-07T09:28:08.733Z,100209.52
2019-04-07T09:30:10.054Z,100219.77
2019-04-07T09:32:02.517Z,100213.65
2019-04-07T09:33:58.971Z,100213.19
2019-04-07T09:35:59.367Z,100220.88
2019-04-07T09:37:56.013Z,100206.34
2019-04-07T09:39:56.913Z,100214.32
2019-04-07T09:41:45.125Z,100221.79
2019-04-07T09:43:41.708Z,100220.06
2019-04-07T09:45:39.475Z,100219.73
2019-04-07T09:47:30.366Z,100219.97
2019-04-07T09:49:23.840Z,100218.77
2019-04-07T09:51:22.761Z,100234.48
2019-04-07T09:53:19.691Z,100215.81
2019-04-07T09:55:13.013Z,100220.69
2019-04-07T09:57:16.800Z,100216.98
2019-04-07T09:59:19.181Z,100217.55
2019-04-07T10:01:09.097Z,100224.73
2019-04-07T10:03:19.156Z,100221.79
2019-04-07T10:05:12.048Z,100221.32
2019-04-07T10:07:04.755Z,100219.78
2019-04-07T10:08:55.480Z,100216.13
2019-04-07T10:10:48.305Z,100217.19
2019-04-07T10:12:45.889Z,100216.76
2019-04-07T10:14:39.806Z,100219.55
2019-04-07T10:16:35.143Z,100215.38
2019-04-07T10:18:20.493Z,100220.42
2019-04-07T10:20:07.470Z,100209.70
2019-04-07T10:21:51.119Z,100205.61
2019-04-07T10:23:37.570Z,100212.28
2019-04-07T10:25:31.260Z,100214.11
2019-04-07T10:27:18.702Z,100206.03
2019-04-07T10:29:00.645Z,100208.17
2019-04-07T10:30:49.977Z,100203.77
2019-04-07T10:32:52.339Z,100215.33
2019-04-07T10:34:34.886Z,100210.20
2019-04-07T10:36:22.907Z,100207.06
2019-04-07T10:38:07.547Z,100212.63
2019-04-07T10:40:01.715Z,100210.42
2019-04-07T10:41:50.814Z,100206.49
2019-04-07T10:43:45.263Z,100206.19
2019-04-07T10:45:45.909Z,100208.58
2019-04-07T10:47:40.138Z,100204.50
2019-04-07T10:49:24.404Z,100197.84
2019-04-07T10:51:09.023Z,100208.20
2019-04-07T10:53:01.403Z,100216.74
2019-04-07T10:54:41.526Z,100212.67
2019-04-07T10:56:35.922Z,100200.38
2019-04-07T10:58:27.919Z,100195.05
2019-04-07T11:00:21.346Z,100197.06
2019-04-07T11:02:16.813Z,100204.13
2019-04-07T11:04:02.434Z,100203.35
2019-04-07T11:05:50.479Z,100198.14
2019-04-07T11:07:54.658Z,100203.00
2019-04-07T11:09:38.889Z,100194.80
2019-04-07T11:11:24.685Z,100211.23
2019-04-07T11:13:18.760Z,100200.60
2019-04-07T11:15:21.090Z,100193.95
2019-04-07T11:17:12.512Z,100195.52
2019-04-07T11:19:18.510Z,100192.97
2019-04-07T11:21:05.623Z,100196.70
2019-04-07T11:23:15.550Z,100174.84
2019-04-07T11:24:59.971Z,100202.34
2019-04-07T11:26:53.874Z,100196.14
2019-04-07T11:28:34.826Z,100190.66
2019-04-07T11:30:16.950Z,100191.88
2019-04-07T11:32:17.642Z,100196.47
2019-04-07T11:34:15.252Z,100193.78
2019-04-07T11:36:09.396Z,100186.95
2019-04-07T11:37:54.061Z,100192.00
2019-04-07T11:39:57.716Z,100193.33
2019-04-07T11:41:55.710Z,100182.55
2019-04-07T11:43:53.315Z,100186.47
2019-04-07T11:45:56.304Z,100191.27
2019-04-07T11:47:29.814Z,100185.00
2019-04-07T11:49:13.386Z,100187.94
2019-04-07T11:51:07.977Z,100191.66
2019-04-07T11:53:13.619Z,100185.86
2019-04-07T11:54:54.024Z,100190.75
2019-04-07T11:57:06.585Z,100176.47
2019-04-07T11:59:08.512Z,100191.55
2019-04-07T12:01:14.399Z,100185.20
2019-04-07T12:03:09.547Z,100180.63
2019-04-07T12:04:57.866Z,100181.09
2019-04-07T12:06:40.386Z,100184.80
2019-04-07T12:08:36.240Z,100196.02
2019-04-07T12:10:34.437Z,100197.45
2019-04-07T12:12:18.315Z,100197.80
2019-04-07T12:14:16.341Z,100189.52
2019-04-07T12:16:08.004Z,100189.52
2019-04-07T12:18:18.900Z,100189.86
2019-04-07T12:20:04.318Z,100189.86
2019-04-07T12:21:50.231Z,100191.52
2019-04-07T12:23:38.229Z,100182.31
2019-04-07T12:25:33.497Z,100186.58
2019-04-07T12:27:25.821Z,100188.17
2019-04-07T12:29:18.943Z,100188.55
2019-04-07T12:31:10.300Z,100176.23
2019-04-07T12:33:05.062Z,100182.09
2019-04-07T12:35:05.224Z,100180.98
2019-04-07T12:37:02.436Z,100166.36
2019-04-07T12:38:57.448Z,100166.36
2019-04-07T12:40:52.919Z,100172.19
2019-04-07T12:42:54.569Z,100184.13
2019-04-07T12:44:35.359Z,100169.16
2019-04-07T12:46:36.829Z,100171.52
2019-04-07T12:48:34.844Z,100177.05
2019-04-07T12:50:24.177Z,100175.91
2019-04-07T12:52:17.317Z,100156.80
2019-04-07T12:54:17.911Z,100166.02
2019-04-07T12:56:08.107Z,100161.96
2019-04-07T12:57:58.225Z,100169.48
2019-04-07T12:59:51.902Z,100165.22
2019-04-07T13:01:47.096Z,100154.44
2019-04-07T13:03:26.132Z,100154.44
2019-04-07T13:05:11.014Z,100157.66
2019-04-07T13:07:19.516Z,100157.66
2019-04-07T13:09:21.527Z,100159.83
2019-04-07T13:11:07.444Z,100174.39
2019-04-07T13:13:02.674Z,100174.39
2019-04-07T13:14:53.653Z,100169.18
2019-04-07T13:16:45.918Z,100165.10
2019-04-07T13:18:31.420Z,100165.10
2019-04-07T13:20:24.333Z,100152.84
2019-04-07T13:22:15.071Z,100152.92
2019-04-07T13:24:13.293Z,100163.68
2019-04-07T13:25:57.902Z,100162.63
2019-04-07T13:27:54.325Z,100156.20
2019-04-07T13:29:41.265Z,100158.09
2019-04-07T13:31:21.306Z,100151.23
2019-04-07T13:33:03.528Z,100146.68
2019-04-07T13:34:57.926Z,100150.27
2019-04-07T13:36:54.405Z,100156.09
2019-04-07T13:38:46.936Z,100151.47
2019-04-07T13:40:33.730Z,100151.47
2019-04-07T13:42:14.250Z,100150.12
2019-04-07T13:43:57.326Z,100139.68
2019-04-07T13:45:50.581Z,100149.42
2019-04-07T13:47:44.722Z,100147.18
2019-04-07T13:49:38.109Z,100140.43
2019-04-07T13:51:44.741Z,100146.95
2019-04-07T13:53:39.367Z,100143.27
2019-04-07T13:55:34.712Z,100140.39
2019-04-07T13:57:32.054Z,100144.54
2019-04-07T13:59:34.918Z,100134.25
2019-04-07T14:01:22.129Z,100134.25
2019-04-07T14:03:04.813Z,100141.78
2019-04-07T14:04:56.154Z,100144.48
2019-04-07T14:06:49.957Z,100145.70
2019-04-07T14:08:41.601Z,100136.58
2019-04-07T14:10:23.513Z,100134.99
2019-04-07T14:12:22.800Z,100137.96
2019-04-07T14:14:17.915Z,100141.78
2019-04-07T14:16:21.224Z,100138.34
2019-04-07T14:18:15.507Z,100135.63
2019-04-07T14:19:57.737Z,100137.79
2019-04-07T14:21:52.172Z,100134.66
2019-04-07T14:23:44.724Z,100127.77
2019-04-07T14:25:41.887Z,100137.69
2019-04-07T14:27:22.071Z,100136.16
2019-04-07T14:29:07.620Z,100136.16
2019-04-07T14:31:01.361Z,100138.30
2019-04-07T14:33:01.161Z,100136.11
2019-04-07T14:34:53.658Z,100136.11
2019-04-07T14:36:53.548Z,100139.41
2019-04-07T14:38:54.244Z,100139.09
2019-04-07T14:41:03.504Z,100135.27
2019-04-07T14:42:47.566Z,100121.77
2019-04-07T14:44:40.193Z,100138.39
2019-04-07T14:46:26.295Z,100135.36
2019-04-07T14:48:20.427Z,100139.17
2019-04-07T14:50:17.078Z,100120.68
2019-04-07T14:51:59.505Z,100120.68
2019-04-07T14:53:55.137Z,100129.17
2019-04-07T14:55:49.563Z,100131.44
2019-04-07T14:57:41.631Z,100134.56
2019-04-07T14:59:36.062Z,100134.56
2019-04-07T15:01:22.601Z,100139.19
2019-04-07T15:02:57.624Z,100139.31
2019-04-07T15:04:38.730Z,100137.50
2019-04-07T15:06:14.363Z,100133.36
2019-04-07T15:08:06.797Z,100127.63
2019-04-07T15:09:52.420Z,100131.91
2019-04-07T15:11:49.100Z,100127.16
2019-04-07T15:13:28.225Z,100139.78
2019-04-07T15:15:05.931Z,100123.05
2019-04-07T15:16:39.305Z,100129.11
2019-04-07T15:18:14.100Z,100128.55
2019-04-07T15:19:48.734Z,100122.72
2019-04-07T15:21:23.963Z,100130.33
2019-04-07T15:23:00.241Z,100132.80
2019-04-07T15:24:35.793Z,100132.37
2019-04-07T15:26:14.498Z,100129.66
2019-04-07T15:27:48.111Z,100134.17
2019-04-07T15:29:24.294Z,100127.09
2019-04-07T15:30:59.015Z,100123.81
2019-04-07T15:32:35.652Z,100123.81
2019-04-07T15:34:11.941Z,100130.09
2019-04-07T15:35:49.438Z,100130.42
2019-04-07T15:37:24.683Z,100129.53
2019-04-07T15:38:59.553Z,100139.55
2019-04-07T15:40:36.251Z,100135.30
2019-04-07T15:42:11.549Z,100139.78
2019-04-07T15:43:47.251Z,100139.34
2019-04-07T15:45:21.909Z,100139.34
2019-04-07T15:46:57.458Z,100117.42
2019-04-07T15:48:32.859Z,100117.42
2019-04-07T15:50:08.524Z,100127.23
2019-04-07T15:51:43.572Z,100135.40
2019-04-07T15:53:23.213Z,100138.91
2019-04-07T15:54:58.463Z,100135.52
2019-04-07T15:56:33.657Z,100132.62
2019-04-07T15:58:08.556Z,100125.41
2019-04-07T15:59:43.405Z,100125.41
2019-04-07T16:01:18.193Z,100138.67
2019-04-07T16:02:53.626Z,100135.09
2019-04-07T16:04:29.829Z,100142.50
2019-04-07T16:06:05.805Z,100140.72
2019-04-07T16:07:40.745Z,100137.79
2019-04-07T16:09:29.840Z,100140.72
2019-04-07T16:10:53.689Z,100142.50
2019-04-07T16:12:29.792Z,100135.87
2019-04-07T16:14:08.703Z,100133.95
2019-04-07T16:15:44.637Z,100139.15
2019-04-07T16:17:19.092Z,100133.30
2019-04-07T16:18:53.704Z,100129.70
2019-04-07T16:20:32.478Z,100137.34
2019-04-07T16:22:06.032Z,100132.27
2019-04-07T16:23:41.656Z,100140.28
2019-04-07T16:25:17.090Z,100133.95
2019-04-07T16:26:52.600Z,100138.81
2019-04-07T16:28:28.187Z,100139.24
2019-04-07T16:30:03.022Z,100135.53
2019-04-07T16:31:39.329Z,100140.50
2019-04-07T16:33:14.108Z,100141.02
2019-04-07T16:34:49.705Z,100141.23
2019-04-07T16:36:26.564Z,100134.62
2019-04-07T16:38:01.818Z,100137.41
2019-04-07T16:39:38.833Z,100137.41
2019-04-07T16:41:14.778Z,100135.96
2019-04-07T16:43:04.420Z,100135.96
2019-04-07T16:44:26.636Z,100141.13
2019-04-07T16:46:01.769Z,100135.55
2019-04-07T16:47:37.119Z,100147.62
2019-04-07T16:49:13.724Z,100147.62
2019-04-07T16:50:54.753Z,100143.81
2019-04-07T16:52:31.103Z,100146.97
2019-04-07T16:54:03.023Z,100151.02
2019-04-07T16:55:40.298Z,100153.45
2019-04-07T16:57:16.246Z,100151.77
2019-04-07T16:58:50.984Z,100147.97
2019-04-07T17:00:25.918Z,100151.89
2019-04-07T17:02:00.714Z,100149.61
2019-04-07T17:03:35.494Z,100149.81
2019-04-07T17:05:10.316Z,100149.81
2019-04-07T17:06:44.999Z,100157.48
2019-04-07T17:08:22.521Z,100156.81
2019-04-07T17:09:57.459Z,100155.00
2019-04-07T17:11:32.511Z,100154.77
2019-04-07T17:13:17.880Z,100155.23
2019-04-07T17:14:43.612Z,100152.61
2019-04-07T17:16:22.545Z,100154.89
2019-04-07T17:17:55.955Z,100160.98
2019-04-07T17:19:30.735Z,100158.39
2019-04-07T17:21:09.464Z,100161.59
2019-04-07T17:22:47.648Z,100161.59
2019-04-07T17:24:25.042Z,100159.13
2019-04-07T17:25:57.705Z,100162.70
2019-04-07T17:27:32.694Z,100167.89
2019-04-07T17:29:08.847Z,100167.89
2019-04-07T17:30:44.476Z,100167.03
2019-04-07T17:32:19.990Z,100165.12
2019-04-07T17:33:55.130Z,100165.12
2019-04-07T17:35:30.691Z,100168.44
2019-04-07T17:37:05.533Z,100168.84
2019-04-07T17:38:58.456Z,100167.66
2019-04-07T17:40:38.235Z,100171.76
2019-04-07T17:42:14.407Z,100170.89
2019-04-07T17:44:05.677Z,100176.94
2019-04-07T17:45:54.614Z,100176.94
2019-04-07T17:47:39.371Z,100181.31
2019-04-07T17:49:26.318Z,100181.31
2019-04-07T17:51:13.891Z,100179.97
2019-04-07T17:53:14.964Z,100178.23
2019-04-07T17:55:00.180Z,100183.33
2019-04-07T17:56:43.167Z,100185.98
2019-04-07T17:58:27.410Z,100185.98
2019-04-07T18:00:20.268Z,100188.50
2019-04-07T18:02:08.629Z,100190.60
2019-04-07T18:04:08.246Z,100192.98
2019-04-07T18:06:05.782Z,100191.73
2019-04-07T18:08:01.831Z,100200.83
2019-04-07T18:09:53.302Z,100201.02
2019-04-07T18:11:41.976Z,100207.27
2019-04-07T18:13:44.987Z,100206.33
2019-04-07T18:15:31.512Z,100210.28
2019-04-07T18:17:26.843Z,100209.61
2019-04-07T18:19:16.031Z,100215.68
2019-04-07T18:21:15.439Z,100217.34
2019-04-07T18:23:07.826Z,100217.71
2019-04-07T18:24:51.112Z,100220.16
2019-04-07T18:26:41.956Z,100219.92
2019-04-07T18:28:54.084Z,100222.22
2019-04-07T18:30:45.394Z,100216.16
2019-04-07T18:32:48.048Z,100233.13
2019-04-07T18:34:48.172Z,100230.44
2019-04-07T18:36:44.658Z,100220.12
2019-04-07T18:38:28.577Z,100238.89
2019-04-07T18:40:37.627Z,100236.76
2019-04-07T18:42:22.070Z,100225.56
2019-04-07T18:44:21.651Z,100225.56
2019-04-07T18:46:16.941Z,100234.00
2019-04-07T18:48:11.330Z,100242.12
2019-04-07T18:50:07.610Z,100246.11
2019-04-07T18:51:59.240Z,100249.57
2019-04-07T18:53:49.256Z,100241.25
2019-04-07T18:55:32.146Z,100241.69
2019-04-07T18:57:21.625Z,100241.69
2019-04-07T18:59:11.708Z,100254.44
2019-04-07T19:01:17.017Z,100261.89
2019-04-07T19:03:29.661Z,100259.39
2019-04-07T19:05:14.422Z,100259.39
2019-04-07T19:07:15.107Z,100257.53
2019-04-07T19:09:14.250Z,100264.17
2019-04-07T19:11:10.692Z,100264.17
2019-04-07T19:13:06.463Z,100258.98
2019-04-07T19:15:05.621Z,100271.20
2019-04-07T19:16:54.685Z,100271.20
2019-04-07T19:18:47.138Z,100270.79
2019-04-07T19:20:40.364Z,100273.59
2019-04-07T19:22:32.523Z,100273.59
2019-04-07T19:24:33.520Z,100274.39
2019-04-07T19:26:24.695Z,100274.39
2019-04-07T19:28:17.758Z,100268.06
2019-04-07T19:30:13.224Z,100277.16
2019-04-07T19:31:59.699Z,100274.91
2019-04-07T19:34:00.939Z,100274.91
2019-04-07T19:35:44.929Z,100276.39
2019-04-07T19:37:34.810Z,100275.22
2019-04-07T19:39:39.254Z,100276.80
2019-04-07T19:41:43.676Z,100276.80
2019-04-07T19:43:29.579Z,100267.24
2019-04-07T19:45:26.918Z,100267.24
2019-04-07T19:47:14.993Z,100273.88
2019-04-07T19:49:07.879Z,100278.62
2019-04-07T19:51:01.626Z,100278.80
2019-04-07T19:52:54.178Z,100276.86
2019-04-07T19:55:03.698Z,100276.86